createdAt,value
2023-03-16T00:02:16.127Z,3.83
2023-03-16T00:04:43.483Z,3.42
2023-03-16T00:07:11.846Z,3.00
2023-03-16T00:09:42.806Z,3.17
2023-03-16T00:12:16.329Z,2.53
2023-03-16T00:14:48.501Z,3.40
2023-03-16T00:17:21.139Z,3.90
2023-03-16T00:19:55.337Z,2.53
2023-03-16T00:22:28.046Z,3.25
2023-03-16T00:24:55.416Z,2.92
2023-03-16T00:27:26.405Z,3.30
2023-03-16T00:29:57.295Z,3.05
2023-03-16T00:32:32.950Z,3.50
2023-03-16T00:35:02.367Z,3.83
2023-03-16T00:37:31.138Z,3.20
2023-03-16T00:40:00.368Z,3.90
2023-03-16T00:42:30.682Z,3.53
2023-03-16T00:44:59.597Z,3.97
2023-03-16T00:47:30.799Z,3.20
2023-03-16T00:49:59.320Z,3.47
2023-03-16T00:52:28.045Z,3.75
2023-03-16T00:54:56.404Z,3.80
2023-03-16T00:57:26.051Z,4.05
2023-03-16T00:59:53.023Z,4.32
2023-03-16T01:02:25.639Z,4.20
2023-03-16T01:04:54.843Z,4.07
2023-03-16T01:07:22.647Z,3.80
2023-03-16T01:09:55.809Z,4.10
2023-03-16T01:14:54.195Z,3.67
2023-03-16T01:17:22.861Z,3.40
2023-03-16T01:19:50.305Z,3.22
2023-03-16T01:22:17.761Z,3.92
2023-03-16T01:24:47.962Z,3.60
2023-03-16T01:27:15.226Z,3.03
2023-03-16T01:29:43.915Z,2.42
2023-03-16T01:32:15.466Z,3.72
2023-03-16T01:34:42.646Z,4.25
2023-03-16T01:37:12.136Z,3.70
2023-03-16T01:39:50.359Z,3.78
2023-03-16T01:42:18.975Z,3.28
2023-03-16T01:44:56.123Z,3.33
2023-03-16T01:47:28.173Z,4.57
2023-03-16T01:49:57.851Z,3.35
2023-03-16T01:52:34.145Z,4.20
2023-03-16T01:55:06.166Z,4.00
2023-03-16T02:00:31.789Z,4.05
2023-03-16T02:03:21.850Z,4.38
2023-03-16T02:06:00.061Z,4.70
2023-03-16T02:08:28.889Z,4.35
2023-03-16T02:10:57.402Z,4.53
2023-03-16T02:13:36.957Z,4.60
2023-03-16T02:16:07.807Z,3.60
2023-03-16T02:18:35.519Z,4.45
2023-03-16T02:21:05.593Z,4.22
2023-03-16T02:23:35.598Z,5.05
2023-03-16T02:26:08.569Z,4.47
2023-03-16T02:28:45.709Z,4.63
2023-03-16T02:31:12.857Z,4.53
2023-03-16T02:33:41.263Z,4.15
2023-03-16T02:36:09.612Z,4.88
2023-03-16T02:38:38.436Z,4.30
2023-03-16T02:41:16.315Z,4.47
2023-03-16T02:44:04.955Z,4.63
2023-03-16T02:46:39.555Z,3.75
2023-03-16T02:49:28.208Z,3.97
2023-03-16T02:52:19.939Z,4.18
2023-03-16T02:54:47.262Z,4.72
2023-03-16T02:57:14.518Z,5.00
2023-03-16T02:59:43.718Z,4.68
2023-03-16T03:02:11.623Z,4.60
2023-03-16T03:04:40.446Z,4.60
2023-03-16T03:07:08.057Z,5.07
2023-03-16T03:09:54.080Z,4.72
2023-03-16T03:12:21.249Z,4.22
2023-03-16T03:14:48.567Z,4.32
2023-03-16T03:17:19.706Z,4.82
2023-03-16T03:19:48.212Z,3.38
2023-03-16T03:22:18.851Z,5.00
2023-03-16T03:24:46.194Z,4.88
2023-03-16T03:27:15.253Z,4.20
2023-03-16T03:29:42.891Z,3.92
2023-03-16T03:32:10.699Z,4.70
2023-03-16T03:34:38.150Z,3.03
2023-03-16T03:37:07.052Z,5.40
2023-03-16T03:39:36.318Z,5.32
2023-03-16T03:42:03.353Z,4.82
2023-03-16T03:44:36.696Z,4.95
2023-03-16T03:47:04.341Z,5.07
2023-03-16T03:49:31.895Z,4.95
2023-03-16T03:51:59.741Z,3.72
2023-03-16T03:54:27.134Z,4.40
2023-03-16T03:56:58.825Z,4.75
2023-03-16T03:59:26.038Z,5.35
2023-03-16T04:02:14.282Z,4.93
2023-03-16T04:04:54.251Z,4.05
2023-03-16T04:07:21.339Z,5.25
2023-03-16T04:09:52.795Z,5.15
2023-03-16T04:12:30.051Z,5.28
2023-03-16T04:14:59.386Z,3.90
2023-03-16T04:17:34.506Z,4.80
2023-03-16T04:20:11.608Z,3.22
2023-03-16T04:22:38.802Z,3.53
2023-03-16T04:25:18.713Z,3.42
2023-03-16T04:27:47.286Z,6.13
2023-03-16T04:30:16.220Z,4.07
2023-03-16T04:32:49.396Z,5.07
2023-03-16T04:35:19.847Z,4.90
2023-03-16T04:37:53.513Z,4.35
2023-03-16T04:40:26.673Z,4.82
2023-03-16T04:43:02.842Z,4.18
2023-03-16T04:45:32.915Z,4.05
2023-03-16T04:48:00.552Z,5.43
2023-03-16T04:50:28.269Z,4.60
2023-03-16T04:52:55.889Z,3.45
2023-03-16T04:55:23.487Z,4.57
2023-03-16T04:57:52.631Z,3.67
2023-03-16T05:00:23.867Z,5.03
2023-03-16T05:05:26.366Z,4.28
2023-03-16T05:07:54.333Z,2.60
2023-03-16T05:10:22.372Z,2.83
2023-03-16T05:12:49.384Z,4.88
2023-03-16T05:15:16.777Z,5.07
2023-03-16T05:17:47.109Z,3.65
2023-03-16T05:20:16.534Z,3.15
2023-03-16T05:22:49.643Z,3.78
2023-03-16T05:25:21.793Z,4.63
2023-03-16T05:27:54.963Z,3.75
2023-03-16T05:30:37.171Z,4.13
2023-03-16T05:33:07.134Z,2.35
2023-03-16T05:35:35.433Z,3.25
2023-03-16T05:38:06.721Z,2.92
2023-03-16T05:40:37.670Z,4.30
2023-03-16T05:43:36.915Z,3.08
2023-03-16T05:46:04.128Z,2.05
2023-03-16T05:48:36.312Z,3.58
2023-03-16T05:51:06.899Z,4.57
2023-03-16T05:53:35.878Z,4.22
2023-03-16T05:56:13.476Z,2.35
2023-03-16T05:58:55.162Z,2.50
2023-03-16T06:01:24.307Z,2.35
2023-03-16T06:03:52.411Z,3.42
2023-03-16T06:06:24.474Z,3.10
2023-03-16T06:09:05.755Z,3.38
2023-03-16T06:11:33.174Z,3.80
2023-03-16T06:14:03.823Z,3.47
2023-03-16T06:16:31.944Z,2.70
2023-03-16T06:19:00.179Z,2.42
2023-03-16T06:21:29.498Z,2.22
2023-03-16T06:24:03.100Z,3.08
2023-03-16T06:26:31.558Z,2.65
2023-03-16T06:28:58.445Z,3.10
2023-03-16T06:31:26.444Z,2.35
2023-03-16T06:33:55.291Z,2.75
2023-03-16T06:36:22.428Z,2.67
2023-03-16T06:38:53.890Z,2.83
2023-03-16T06:41:45.705Z,3.10
2023-03-16T06:44:15.712Z,2.20
2023-03-16T06:47:05.815Z,1.83
2023-03-16T06:49:32.966Z,2.63
2023-03-16T06:52:03.709Z,2.80
2023-03-16T06:54:35.382Z,2.85
2023-03-16T06:57:02.954Z,2.00
2023-03-16T06:59:30.184Z,2.53
2023-03-16T07:01:57.646Z,2.00
2023-03-16T07:04:25.154Z,2.00
2023-03-16T07:06:52.246Z,2.55
2023-03-16T07:09:19.897Z,1.65
2023-03-16T07:11:47.047Z,2.35
2023-03-16T07:14:14.802Z,3.42
2023-03-16T07:16:42.170Z,1.83
2023-03-16T07:19:10.105Z,1.08
2023-03-16T07:21:40.945Z,2.35
2023-03-16T07:26:43.361Z,2.15
2023-03-16T07:29:14.754Z,2.17
2023-03-16T07:31:41.933Z,2.00
2023-03-16T07:34:15.050Z,2.72
2023-03-16T07:36:53.001Z,1.75
2023-03-16T07:39:24.096Z,1.63
2023-03-16T07:41:54.705Z,1.15
2023-03-16T07:44:37.528Z,1.63
2023-03-16T07:47:04.717Z,1.77
2023-03-16T07:49:32.009Z,2.00
2023-03-16T07:52:00.670Z,1.55
2023-03-16T07:54:36.785Z,1.98
2023-03-16T07:57:07.104Z,2.15
2023-03-16T07:59:41.891Z,1.88
2023-03-16T08:02:20.279Z,1.52
2023-03-16T08:04:48.340Z,2.17
2023-03-16T08:07:17.625Z,1.92
2023-03-16T08:10:06.180Z,1.73
2023-03-16T08:12:42.163Z,2.00
2023-03-16T08:15:11.030Z,2.08
2023-03-16T08:17:42.130Z,1.70
2023-03-16T08:20:15.315Z,2.10
2023-03-16T08:22:46.578Z,2.17
2023-03-16T08:25:16.532Z,2.17
2023-03-16T08:27:53.405Z,1.25
2023-03-16T08:30:21.363Z,2.05
2023-03-16T08:32:57.504Z,2.17
2023-03-16T08:35:27.536Z,1.90
2023-03-16T08:37:54.710Z,1.45
2023-03-16T08:40:22.775Z,2.13
2023-03-16T08:42:51.555Z,1.88
2023-03-16T08:45:21.091Z,2.50
2023-03-16T08:47:48.423Z,2.10
2023-03-16T08:50:16.069Z,2.20
2023-03-16T08:52:43.649Z,1.75
2023-03-16T08:55:11.391Z,1.67
2023-03-16T08:57:40.590Z,1.65
2023-03-16T09:00:14.504Z,2.05
2023-03-16T09:02:42.500Z,1.80
2023-03-16T09:05:12.575Z,2.92
2023-03-16T09:07:39.803Z,2.55
2023-03-16T09:10:07.776Z,1.27
2023-03-16T09:12:38.600Z,1.33
2023-03-16T09:15:06.297Z,1.58
2023-03-16T09:17:36.494Z,1.73
2023-03-16T09:20:19.500Z,2.35
2023-03-16T09:22:48.647Z,2.10
2023-03-16T09:25:21.419Z,1.70
2023-03-16T09:27:49.362Z,1.40
2023-03-16T09:30:17.165Z,2.08
2023-03-16T09:32:45.281Z,1.75
2023-03-16T09:35:15.118Z,1.85
2023-03-16T09:37:45.415Z,1.90
2023-03-16T09:40:25.499Z,1.48
2023-03-16T09:43:11.172Z,2.38
2023-03-16T09:45:48.504Z,2.90
2023-03-16T09:48:17.222Z,2.03
2023-03-16T09:50:49.105Z,1.83
2023-03-16T09:53:32.658Z,1.50
2023-03-16T09:56:03.867Z,1.60
2023-03-16T09:58:33.035Z,1.92
2023-03-16T10:01:27.032Z,2.38
2023-03-16T10:04:05.692Z,1.38
2023-03-16T10:06:33.865Z,2.08
2023-03-16T10:09:33.335Z,1.80
2023-03-16T10:12:04.112Z,2.10
2023-03-16T10:14:32.251Z,1.30
2023-03-16T10:17:11.047Z,1.80
2023-03-16T10:20:02.159Z,1.75
2023-03-16T10:22:35.176Z,1.60
2023-03-16T10:25:08.161Z,2.25
2023-03-16T10:27:38.968Z,1.92
2023-03-16T10:30:24.867Z,1.42
2023-03-16T10:32:52.725Z,2.35
2023-03-16T10:35:55.882Z,2.03
2023-03-16T10:38:31.443Z,1.75
2023-03-16T10:40:58.668Z,1.42
2023-03-16T10:43:30.454Z,1.90
2023-03-16T10:46:02.576Z,1.83
2023-03-16T10:48:34.274Z,1.92
2023-03-16T10:51:07.459Z,2.10
2023-03-16T10:53:38.980Z,1.80
2023-03-16T10:56:13.271Z,2.20
2023-03-16T10:58:42.820Z,1.55
2023-03-16T11:01:24.280Z,1.85
2023-03-16T11:03:53.721Z,2.10
2023-03-16T11:06:32.759Z,2.00
2023-03-16T11:09:12.200Z,2.17
2023-03-16T11:11:39.248Z,2.30
2023-03-16T11:14:15.542Z,1.73
2023-03-16T11:17:35.824Z,2.72
2023-03-16T11:20:19.310Z,2.63
2023-03-16T11:22:48.684Z,2.25
2023-03-16T11:25:34.267Z,2.03
2023-03-16T11:28:12.574Z,2.47
2023-03-16T11:30:58.296Z,1.80
2023-03-16T11:33:27.693Z,1.63
2023-03-16T11:36:16.922Z,1.13
2023-03-16T11:39:06.607Z,1.60
2023-03-16T11:42:10.229Z,2.03
2023-03-16T11:44:59.681Z,1.60
2023-03-16T11:47:59.052Z,1.45
2023-03-16T11:50:32.877Z,1.08
2023-03-16T11:53:44.810Z,1.80
2023-03-16T11:56:22.311Z,1.35
2023-03-16T11:59:24.297Z,1.48
2023-03-16T12:02:09.612Z,2.17
2023-03-16T12:04:48.784Z,1.30
2023-03-16T12:07:41.165Z,1.05
2023-03-16T12:10:34.498Z,1.20
2023-03-16T12:13:27.888Z,1.80
2023-03-16T12:16:01.846Z,1.35
2023-03-16T12:19:01.808Z,1.30
2023-03-16T12:21:34.277Z,1.15
2023-03-16T12:24:07.424Z,0.98
2023-03-16T12:26:40.208Z,2.13
2023-03-16T12:29:34.341Z,1.40
2023-03-16T12:32:18.987Z,1.48
2023-03-16T12:35:23.647Z,1.88
2023-03-16T12:38:06.127Z,1.35
2023-03-16T12:40:46.968Z,1.45
2023-03-16T12:43:51.750Z,1.40
2023-03-16T12:46:30.780Z,1.20
2023-03-16T12:49:05.772Z,1.50
2023-03-16T12:51:41.465Z,1.13
2023-03-16T12:54:29.904Z,1.13
2023-03-16T12:57:09.181Z,1.50
2023-03-16T12:59:43.234Z,1.38
2023-03-16T13:02:25.227Z,1.20
2023-03-16T13:05:13.384Z,1.23
2023-03-16T13:07:49.148Z,1.35
2023-03-16T13:10:17.523Z,0.90
2023-03-16T13:12:45.471Z,1.00
2023-03-16T13:15:22.582Z,1.85
2023-03-16T13:18:02.530Z,0.75
2023-03-16T13:20:35.004Z,1.20
2023-03-16T13:23:17.802Z,1.23
2023-03-16T13:25:59.082Z,1.33
2023-03-16T13:28:31.554Z,1.23
2023-03-16T13:30:58.788Z,0.90
2023-03-16T13:33:28.650Z,0.70
2023-03-16T13:35:57.969Z,0.82
2023-03-16T13:38:28.894Z,0.95
2023-03-16T13:40:58.942Z,0.63
2023-03-16T13:43:33.128Z,0.70
2023-03-16T13:46:00.299Z,0.95
2023-03-16T13:48:27.173Z,1.15
2023-03-16T13:50:59.152Z,0.68
2023-03-16T13:53:29.894Z,0.98
2023-03-16T13:55:59.595Z,0.68
2023-03-16T13:58:33.649Z,1.02
2023-03-16T14:01:05.182Z,1.27
2023-03-16T14:03:38.199Z,1.15
2023-03-16T14:06:06.989Z,1.00
2023-03-16T14:08:34.807Z,1.10
2023-03-16T14:11:02.886Z,0.95
2023-03-16T14:13:30.596Z,0.65
2023-03-16T14:16:01.489Z,1.20
2023-03-16T14:18:41.233Z,0.80
2023-03-16T14:21:29.145Z,1.08
2023-03-16T14:24:02.337Z,1.02
2023-03-16T14:26:41.257Z,1.00
2023-03-16T14:29:20.604Z,1.20
2023-03-16T14:31:48.922Z,0.82
2023-03-16T14:34:35.323Z,0.70
2023-03-16T14:37:12.825Z,1.77
2023-03-16T14:39:43.116Z,0.65
2023-03-16T14:42:30.735Z,1.10
2023-03-16T14:45:02.590Z,0.80
2023-03-16T14:50:06.265Z,0.82
2023-03-16T14:52:34.950Z,1.13
2023-03-16T14:55:10.422Z,1.00
2023-03-16T14:57:41.811Z,0.63
2023-03-16T15:00:12.755Z,0.73
2023-03-16T15:02:42.403Z,0.65
2023-03-16T15:05:12.176Z,0.63
2023-03-16T15:07:41.337Z,0.70
2023-03-16T15:10:22.281Z,0.80
2023-03-16T15:13:04.161Z,0.60
2023-03-16T15:15:34.640Z,0.70
2023-03-16T15:18:03.031Z,0.82
2023-03-16T15:20:35.446Z,0.95
2023-03-16T15:23:04.953Z,0.68
2023-03-16T15:25:37.485Z,0.65
2023-03-16T15:28:12.247Z,0.80
2023-03-16T15:30:40.193Z,0.80
2023-03-16T15:33:09.242Z,1.08
2023-03-16T15:35:37.366Z,0.80
2023-03-16T15:38:11.227Z,1.00
2023-03-16T15:40:40.350Z,0.68
2023-03-16T15:43:12.727Z,0.77
2023-03-16T15:45:40.194Z,0.52
2023-03-16T15:48:08.626Z,0.73
2023-03-16T15:50:39.303Z,0.70
2023-03-16T15:53:29.970Z,0.90
2023-03-16T15:56:04.786Z,1.23
2023-03-16T15:58:34.565Z,0.95
2023-03-16T16:01:03.281Z,1.30
2023-03-16T16:03:31.296Z,0.93
2023-03-16T16:06:00.145Z,1.20
2023-03-16T16:08:27.155Z,1.10
2023-03-16T16:10:54.696Z,0.80
2023-03-16T16:13:43.520Z,0.90
2023-03-16T16:16:13.957Z,0.70
2023-03-16T16:18:42.477Z,0.60
2023-03-16T16:21:17.058Z,0.63
2023-03-16T16:23:44.227Z,0.80
2023-03-16T16:26:48.171Z,0.68
2023-03-16T16:29:19.563Z,0.90
2023-03-16T16:31:46.913Z,0.85
2023-03-16T16:34:15.867Z,0.90
2023-03-16T16:36:44.908Z,0.93
2023-03-16T16:39:13.298Z,1.25
2023-03-16T16:41:42.679Z,0.65
2023-03-16T16:44:23.777Z,1.52
2023-03-16T16:46:52.128Z,1.30
2023-03-16T16:49:22.725Z,1.33
2023-03-16T16:51:50.172Z,0.95
2023-03-16T16:54:26.302Z,1.52
2023-03-16T16:56:55.734Z,1.00
2023-03-16T16:59:29.151Z,0.95
2023-03-16T17:02:01.141Z,0.63
2023-03-16T17:04:29.472Z,0.88
2023-03-16T17:07:02.261Z,0.60
2023-03-16T17:09:35.305Z,1.00
2023-03-16T17:12:04.822Z,1.15
2023-03-16T17:14:32.483Z,0.95
2023-03-16T17:17:05.739Z,0.50
2023-03-16T17:19:33.369Z,1.00
2023-03-16T17:22:00.324Z,1.15
2023-03-16T17:24:28.109Z,0.85
2023-03-16T17:26:58.867Z,1.33
2023-03-16T17:29:32.547Z,0.77
2023-03-16T17:32:01.613Z,0.80
2023-03-16T17:34:33.053Z,0.60
2023-03-16T17:37:00.348Z,1.00
2023-03-16T17:39:33.998Z,0.73
2023-03-16T17:42:13.379Z,0.73
2023-03-16T17:44:43.167Z,1.20
2023-03-16T17:47:14.754Z,1.00
2023-03-16T17:49:41.736Z,0.93
2023-03-16T17:52:15.533Z,0.68
2023-03-16T17:54:42.540Z,1.33
2023-03-16T17:57:16.804Z,1.00
2023-03-16T17:59:46.325Z,1.10
2023-03-16T18:02:51.040Z,0.90
2023-03-16T18:05:38.516Z,1.17
2023-03-16T18:08:27.683Z,1.00
2023-03-16T18:11:00.098Z,0.93
2023-03-16T18:13:30.921Z,0.80
2023-03-16T18:15:59.598Z,1.08
2023-03-16T18:18:28.857Z,0.75
2023-03-16T18:20:57.726Z,1.00
2023-03-16T18:23:30.741Z,0.80
2023-03-16T18:26:03.974Z,0.82
2023-03-16T18:28:31.627Z,0.90
2023-03-16T18:30:59.760Z,1.08
2023-03-16T18:33:30.177Z,1.20
2023-03-16T18:36:03.573Z,1.50
2023-03-16T18:38:37.074Z,1.30
2023-03-16T18:41:16.026Z,1.23
2023-03-16T18:43:43.442Z,1.40
2023-03-16T18:46:29.030Z,2.05
2023-03-16T18:48:59.396Z,1.35
2023-03-16T18:51:26.865Z,1.10
2023-03-16T18:53:54.480Z,0.95
2023-03-16T18:56:24.539Z,0.70
2023-03-16T18:58:53.231Z,0.77
2023-03-16T19:01:31.967Z,1.10
2023-03-16T19:04:01.063Z,1.00
2023-03-16T19:06:31.671Z,1.08
2023-03-16T19:09:23.656Z,1.05
2023-03-16T19:11:51.894Z,1.30
2023-03-16T19:14:26.815Z,1.63
2023-03-16T19:16:55.442Z,1.17
2023-03-16T19:19:24.447Z,0.77
2023-03-16T19:21:58.315Z,1.17
2023-03-16T19:24:25.586Z,0.80
2023-03-16T19:26:53.871Z,1.08
2023-03-16T19:29:28.860Z,1.13
2023-03-16T19:31:59.680Z,1.00
2023-03-16T19:34:27.338Z,0.75
2023-03-16T19:36:56.607Z,0.98
2023-03-16T19:39:23.985Z,0.98
2023-03-16T19:41:57.765Z,1.02
2023-03-16T19:44:27.650Z,1.00
2023-03-16T19:46:56.997Z,1.20
2023-03-16T19:49:26.279Z,0.80
2023-03-16T19:51:56.461Z,1.10
2023-03-16T19:54:29.842Z,1.40
2023-03-16T19:56:59.628Z,1.30
2023-03-16T19:59:31.408Z,1.02
2023-03-16T20:04:27.125Z,1.27
2023-03-16T20:06:54.628Z,1.23
2023-03-16T20:09:22.657Z,1.30
2023-03-16T20:11:52.607Z,1.10
2023-03-16T20:14:32.748Z,1.67
2023-03-16T20:17:00.437Z,1.50
2023-03-16T20:19:27.989Z,1.08
2023-03-16T20:21:54.832Z,1.30
2023-03-16T20:24:22.726Z,1.90
2023-03-16T20:26:51.815Z,2.38
2023-03-16T20:29:21.708Z,1.33
2023-03-16T20:32:34.269Z,1.48
2023-03-16T20:35:01.748Z,1.92
2023-03-16T20:37:30.852Z,1.42
2023-03-16T20:39:59.245Z,1.48
2023-03-16T20:42:30.230Z,1.10
2023-03-16T20:44:57.563Z,1.58
2023-03-16T20:47:26.058Z,1.13
2023-03-16T20:50:00.358Z,1.27
2023-03-16T20:52:30.971Z,1.55
2023-03-16T20:54:58.487Z,1.08
2023-03-16T20:57:30.239Z,1.20
2023-03-16T20:59:57.279Z,1.52
2023-03-16T21:02:34.669Z,1.58
2023-03-16T21:05:04.254Z,1.65
2023-03-16T21:07:32.023Z,1.55
2023-03-16T21:09:59.490Z,1.77
2023-03-16T21:12:30.718Z,1.85
2023-03-16T21:14:58.518Z,1.13
2023-03-16T21:17:33.919Z,1.13
2023-03-16T21:20:01.623Z,0.90
2023-03-16T21:22:35.045Z,1.33
2023-03-16T21:25:02.152Z,1.10
2023-03-16T21:27:32.564Z,1.55
2023-03-16T21:30:07.585Z,1.60
2023-03-16T21:32:34.556Z,1.20
2023-03-16T21:35:01.667Z,1.15
2023-03-16T21:37:30.609Z,1.20
2023-03-16T21:39:58.662Z,1.40
2023-03-16T21:42:27.156Z,1.08
2023-03-16T21:44:54.159Z,1.27
2023-03-16T21:47:28.324Z,1.33
2023-03-16T21:49:56.063Z,1.35
2023-03-16T21:52:27.401Z,1.35
2023-03-16T21:54:57.124Z,1.27
2023-03-16T21:57:24.697Z,1.20
2023-03-16T21:59:52.445Z,1.70
2023-03-16T22:02:23.526Z,1.20
2023-03-16T22:04:51.953Z,1.40
2023-03-16T22:07:20.065Z,1.33
2023-03-16T22:09:46.931Z,1.63
2023-03-16T22:12:14.563Z,1.73
2023-03-16T22:14:42.095Z,1.88
2023-03-16T22:17:20.232Z,1.48
2023-03-16T22:19:48.708Z,2.00
2023-03-16T22:22:17.402Z,1.60
2023-03-16T22:24:44.308Z,2.00
2023-03-16T22:27:22.474Z,1.90
2023-03-16T22:29:50.122Z,2.05
2023-03-16T22:32:21.481Z,1.70
2023-03-16T22:34:53.906Z,1.95
2023-03-16T22:37:25.874Z,1.75
2023-03-16T22:39:53.450Z,2.42
2023-03-16T22:42:38.633Z,1.50
2023-03-16T22:45:21.562Z,1.80
2023-03-16T22:47:48.621Z,2.25
2023-03-16T22:50:18.304Z,1.83
2023-03-16T22:52:49.129Z,1.60
2023-03-16T22:55:34.196Z,1.65
2023-03-16T22:58:25.463Z,1.52
2023-03-16T23:00:53.028Z,1.63
2023-03-16T23:03:22.731Z,2.10
2023-03-16T23:05:50.844Z,1.85
2023-03-16T23:08:23.656Z,1.92
2023-03-16T23:10:52.166Z,1.80
2023-03-16T23:13:24.952Z,1.42
2023-03-16T23:15:53.654Z,1.98
2023-03-16T23:18:26.304Z,1.60
2023-03-16T23:20:53.826Z,2.15
2023-03-16T23:23:21.722Z,1.80
2023-03-16T23:25:48.956Z,2.30
2023-03-16T23:28:24.672Z,1.88
2023-03-16T23:30:51.890Z,2.00
2023-03-16T23:33:19.303Z,2.28
2023-03-16T23:35:48.725Z,2.10
2023-03-16T23:38:15.547Z,2.30
2023-03-16T23:40:42.872Z,2.05
2023-03-16T23:43:10.111Z,1.90
2023-03-16T23:45:46.894Z,1.90
2023-03-16T23:48:19.723Z,1.90
2023-03-16T23:50:49.991Z,1.98
2023-03-16T23:53:19.978Z,2.30
2023-03-16T23:55:48.102Z,2.15
2023-03-16T23:58:16.384Z,1.60
